SBCJ/CKS METAR and TAF weather

Enter ICAO airport designator
Station Type Date Time Source
SBCJ METAR 2021/05/11 21:30 UTC NOAA

SBCJ 112130Z 00000KT CAVOK 24/20 Q1014


Station Type Date Time Source
SBCJ Decoded METAR 2021/05/11 21:30 UTC NOAA

Carajas / Maraba, Brazil (SBCJ) 06-07S 050-00W
May 11, 2021 - 05:30 PM EDT / 2021.05.11 2130 UTC
Wind: Calm:0
Visibility: greater than 7 mile(s):0
Temperature: 75 F (24 C)
Dew Point: 68 F (20 C)
Relative Humidity: 78%
Pressure (altimeter): 29.94 in. Hg (1014 hPa)
ob: SBCJ 112130Z 00000KT CAVOK 24/20 Q1014
cycle: 21

Station Type Date Time Source
SBCJ TAF 2021/05/12 06:48 UTC NOAA

TAF TAF SBCJ 110300Z 1206/1218 13005KT 9999 SCT010 TN24/1211Z TX28/1217Z
BECMG 1216/1218 15008KT
RMK PGY

Example: see airport list